createdAt,value
2023-05-20T00:01:22.834Z,13.02
2023-05-20T00:03:50.316Z,13.88
2023-05-20T00:06:17.603Z,12.07
2023-05-20T00:08:44.732Z,9.18
2023-05-20T00:11:12.086Z,12.35
2023-05-20T00:13:39.532Z,10.98
2023-05-20T00:16:07.032Z,12.35
2023-05-20T00:18:34.347Z,11.55
2023-05-20T00:21:01.550Z,10.65
2023-05-20T00:23:28.729Z,11.18
2023-05-20T00:25:57.839Z,14.93
2023-05-20T00:28:26.452Z,17.95
2023-05-20T00:30:54.587Z,11.57
2023-05-20T00:33:21.968Z,13.63
2023-05-20T00:35:49.191Z,15.43
2023-05-20T00:38:16.381Z,10.73
2023-05-20T00:40:43.584Z,12.48
2023-05-20T00:43:12.062Z,10.80
2023-05-20T00:45:39.720Z,11.07
2023-05-20T00:48:07.708Z,13.80
2023-05-20T00:50:35.858Z,14.02
2023-05-20T00:53:03.973Z,12.50
2023-05-20T00:55:31.658Z,11.18
2023-05-20T00:57:59.310Z,11.27
2023-05-20T01:00:26.419Z,12.40
2023-05-20T01:02:57.239Z,11.98
2023-05-20T01:05:25.129Z,11.55
2023-05-20T01:07:52.617Z,18.65
2023-05-20T01:10:20.227Z,14.05
2023-05-20T01:12:52.405Z,10.38
2023-05-20T01:15:22.580Z,11.60
2023-05-20T01:17:54.821Z,10.88
2023-05-20T01:20:22.460Z,12.52
2023-05-20T01:22:52.151Z,12.80
2023-05-20T01:25:19.567Z,15.38
2023-05-20T01:27:50.258Z,12.95
2023-05-20T01:30:18.835Z,12.20
2023-05-20T01:32:49.583Z,13.35
2023-05-20T01:35:19.395Z,12.73
2023-05-20T01:37:48.528Z,15.23
2023-05-20T01:40:18.088Z,10.10
2023-05-20T01:42:46.723Z,14.93
2023-05-20T01:45:14.343Z,13.48
2023-05-20T01:47:41.720Z,12.90
2023-05-20T01:50:09.377Z,9.88
2023-05-20T01:52:36.649Z,11.82
2023-05-20T01:55:04.270Z,11.32
2023-05-20T01:57:31.579Z,14.73
2023-05-20T01:59:58.988Z,15.07
2023-05-20T02:02:26.503Z,11.07
2023-05-20T02:04:55.335Z,12.98
2023-05-20T02:07:22.558Z,11.45
2023-05-20T02:09:50.024Z,10.82
2023-05-20T02:12:17.440Z,11.05
2023-05-20T02:14:47.030Z,14.23
2023-05-20T02:17:17.666Z,12.90
2023-05-20T02:19:46.672Z,10.50
2023-05-20T02:22:14.567Z,13.25
2023-05-20T02:24:44.253Z,12.32
2023-05-20T02:27:12.032Z,12.90
2023-05-20T02:29:39.495Z,11.73
2023-05-20T02:32:07.235Z,14.13
2023-05-20T02:34:34.624Z,13.55
2023-05-20T02:37:01.866Z,12.45
2023-05-20T02:39:29.903Z,11.95
2023-05-20T02:41:57.194Z,15.48
2023-05-20T02:44:24.622Z,13.18
2023-05-20T02:46:52.134Z,12.82
2023-05-20T02:49:21.738Z,15.15
2023-05-20T02:51:49.145Z,15.82
2023-05-20T02:54:17.455Z,18.05
2023-05-20T02:56:44.806Z,14.05
2023-05-20T02:59:12.355Z,12.07
2023-05-20T03:01:40.596Z,13.02
2023-05-20T03:04:08.889Z,12.30
2023-05-20T03:06:38.280Z,15.82
2023-05-20T03:09:06.176Z,13.88
2023-05-20T03:11:33.451Z,12.23
2023-05-20T03:14:00.952Z,12.90
2023-05-20T03:16:28.585Z,12.20
2023-05-20T03:18:56.179Z,17.05
2023-05-20T03:21:24.209Z,15.55
2023-05-20T03:23:52.066Z,16.98
2023-05-20T03:26:19.546Z,14.02
2023-05-20T03:28:46.921Z,14.55
2023-05-20T03:31:14.773Z,13.52
2023-05-20T03:33:42.132Z,12.10
2023-05-20T03:36:09.499Z,16.25
2023-05-20T03:38:37.042Z,15.70
2023-05-20T03:41:04.389Z,16.67
2023-05-20T03:43:33.592Z,14.82
2023-05-20T03:46:01.590Z,15.90
2023-05-20T03:48:29.616Z,15.63
2023-05-20T03:50:57.035Z,16.42
2023-05-20T03:53:24.599Z,19.08
2023-05-20T03:55:52.281Z,14.68
2023-05-20T03:58:21.048Z,15.75
2023-05-20T04:00:49.299Z,16.75
2023-05-20T04:03:18.605Z,19.13
2023-05-20T04:05:47.716Z,18.65
2023-05-20T04:08:20.184Z,13.93
2023-05-20T04:10:47.694Z,16.48
2023-05-20T04:13:14.954Z,18.17
2023-05-20T04:15:43.749Z,12.77
2023-05-20T04:18:13.935Z,21.35
2023-05-20T04:20:41.965Z,17.05
2023-05-20T04:23:10.892Z,15.98
2023-05-20T04:25:39.308Z,14.90
2023-05-20T04:28:07.265Z,18.42
2023-05-20T04:30:35.664Z,20.10
2023-05-20T04:33:03.773Z,17.88
2023-05-20T04:35:32.520Z,18.75
2023-05-20T04:38:04.278Z,16.50
2023-05-20T04:40:32.801Z,19.08
2023-05-20T04:43:01.034Z,16.90
2023-05-20T04:45:28.504Z,14.57
2023-05-20T04:47:55.898Z,14.55
2023-05-20T04:50:23.369Z,18.52
2023-05-20T04:52:50.813Z,19.75
2023-05-20T04:55:19.812Z,17.50
2023-05-20T04:57:48.286Z,16.25
2023-05-20T05:00:16.225Z,19.40
2023-05-20T05:02:43.596Z,16.77
2023-05-20T05:05:11.305Z,20.33
2023-05-20T05:07:40.769Z,16.08
2023-05-20T05:10:08.697Z,18.65
2023-05-20T05:12:35.988Z,16.80
2023-05-20T05:15:05.310Z,20.00
2023-05-20T05:17:32.612Z,14.77
2023-05-20T05:20:00.218Z,19.45
2023-05-20T05:22:31.872Z,22.58
2023-05-20T05:24:59.278Z,15.43
2023-05-20T05:27:26.559Z,15.82
2023-05-20T05:29:54.168Z,18.83
2023-05-20T05:32:21.512Z,14.82
2023-05-20T05:34:48.996Z,18.02
2023-05-20T05:37:16.340Z,21.95
2023-05-20T05:39:43.837Z,16.75
2023-05-20T05:42:11.354Z,17.85
2023-05-20T05:44:39.124Z,21.55
2023-05-20T05:47:08.623Z,20.75
2023-05-20T05:49:36.332Z,15.95
2023-05-20T05:52:04.477Z,19.83
2023-05-20T05:54:32.016Z,18.52
2023-05-20T05:56:59.477Z,18.20
2023-05-20T05:59:29.766Z,20.55
2023-05-20T06:01:57.807Z,14.82
2023-05-20T06:04:25.460Z,17.35
2023-05-20T06:06:55.914Z,17.35
2023-05-20T06:09:23.310Z,20.13
2023-05-20T06:11:52.383Z,16.88
2023-05-20T06:14:20.670Z,17.95
2023-05-20T06:16:48.996Z,16.75
2023-05-20T06:19:18.320Z,19.30
2023-05-20T06:21:46.070Z,13.20
2023-05-20T06:24:13.456Z,16.15
2023-05-20T06:26:41.334Z,19.33
2023-05-20T06:29:09.227Z,16.65
2023-05-20T06:31:36.600Z,20.80
2023-05-20T06:34:04.026Z,17.75
2023-05-20T06:36:33.668Z,15.45
2023-05-20T06:39:01.541Z,19.65
2023-05-20T06:41:29.718Z,14.73
2023-05-20T06:43:57.255Z,16.58
2023-05-20T06:46:26.573Z,17.60
2023-05-20T06:48:57.421Z,19.77
2023-05-20T06:51:25.064Z,23.45
2023-05-20T06:53:52.501Z,18.63
2023-05-20T06:56:21.918Z,19.23
2023-05-20T06:58:49.771Z,20.65
2023-05-20T07:01:18.396Z,20.15
2023-05-20T07:03:47.419Z,16.70
2023-05-20T07:06:15.125Z,22.17
2023-05-20T07:08:42.496Z,21.85
2023-05-20T07:11:10.354Z,16.60
2023-05-20T07:13:38.506Z,20.35
2023-05-20T07:16:07.019Z,22.27
2023-05-20T07:18:36.574Z,19.40
2023-05-20T07:21:04.134Z,20.25
2023-05-20T07:23:32.869Z,21.02
2023-05-20T07:26:00.313Z,20.38
2023-05-20T07:28:27.794Z,23.08
2023-05-20T07:30:57.213Z,27.27
2023-05-20T07:33:27.823Z,21.45
2023-05-20T07:35:55.257Z,21.98
2023-05-20T07:38:23.800Z,22.17
2023-05-20T07:40:57.959Z,25.08
2023-05-20T07:43:25.870Z,20.95
2023-05-20T07:45:53.157Z,19.40
2023-05-20T07:48:21.277Z,23.20
2023-05-20T07:50:48.786Z,27.30
2023-05-20T07:53:17.692Z,24.77
2023-05-20T07:55:45.580Z,29.33
2023-05-20T07:58:13.357Z,19.92
2023-05-20T08:00:41.110Z,21.70
2023-05-20T08:03:09.398Z,22.65
2023-05-20T08:05:48.888Z,18.92
2023-05-20T08:08:17.370Z,22.88
2023-05-20T08:10:52.993Z,19.83
2023-05-20T08:13:23.576Z,22.85
2023-05-20T08:15:52.935Z,17.80
2023-05-20T08:18:20.514Z,19.27
2023-05-20T08:20:48.608Z,20.60
2023-05-20T08:23:16.221Z,23.00
2023-05-20T08:25:43.783Z,17.85
2023-05-20T08:28:11.992Z,16.70
2023-05-20T08:30:40.239Z,23.98
2023-05-20T08:33:08.669Z,19.30
2023-05-20T08:35:36.755Z,23.95
2023-05-20T08:38:05.965Z,18.92
2023-05-20T08:40:36.030Z,17.25
2023-05-20T08:43:04.572Z,20.52
2023-05-20T08:45:34.245Z,19.35
2023-05-20T08:48:06.933Z,17.08
2023-05-20T08:50:34.416Z,20.30
2023-05-20T08:53:01.776Z,18.58
2023-05-20T08:55:37.537Z,21.70
2023-05-20T08:58:05.296Z,21.50
2023-05-20T09:00:32.628Z,17.55
2023-05-20T09:03:01.270Z,22.83
2023-05-20T09:05:29.343Z,22.02
2023-05-20T09:07:59.969Z,19.65
2023-05-20T09:10:27.430Z,31.10
2023-05-20T09:12:54.828Z,16.85
2023-05-20T09:15:22.119Z,22.02
2023-05-20T09:17:50.904Z,19.58
2023-05-20T09:20:18.492Z,24.70
2023-05-20T09:22:45.877Z,19.23
2023-05-20T09:25:14.400Z,21.08
2023-05-20T09:27:42.046Z,19.50
2023-05-20T09:30:12.722Z,20.50
2023-05-20T09:32:40.517Z,21.27
2023-05-20T09:35:08.414Z,18.30
2023-05-20T09:37:37.077Z,20.95
2023-05-20T09:40:06.526Z,15.63
2023-05-20T09:42:42.412Z,17.17
2023-05-20T09:45:10.467Z,20.42
2023-05-20T09:47:41.031Z,18.58
2023-05-20T09:50:09.604Z,20.85
2023-05-20T09:52:38.916Z,18.17
2023-05-20T09:55:07.390Z,16.45
2023-05-20T09:57:35.726Z,16.63
2023-05-20T10:00:06.193Z,15.60
2023-05-20T10:02:44.946Z,19.90
2023-05-20T10:05:18.973Z,17.20
2023-05-20T10:07:58.379Z,20.35
2023-05-20T10:10:50.210Z,14.52
2023-05-20T10:13:31.941Z,13.70
2023-05-20T10:16:02.411Z,15.93
2023-05-20T10:18:39.741Z,16.73
2023-05-20T10:21:17.240Z,18.10
2023-05-20T10:23:45.136Z,14.57
2023-05-20T10:26:12.440Z,19.08
2023-05-20T10:28:42.049Z,12.93
2023-05-20T10:31:18.959Z,12.30
2023-05-20T10:33:47.372Z,16.33
2023-05-20T10:36:18.398Z,14.38
2023-05-20T10:38:49.358Z,14.98
2023-05-20T10:41:23.139Z,15.80
2023-05-20T10:44:01.535Z,19.25
2023-05-20T10:46:37.996Z,11.90
2023-05-20T10:49:13.161Z,14.52
2023-05-20T10:51:44.547Z,17.42
2023-05-20T10:54:12.245Z,15.30
2023-05-20T10:56:51.666Z,12.48
2023-05-20T10:59:19.828Z,14.93
2023-05-20T11:01:47.937Z,15.30
2023-05-20T11:04:17.878Z,13.88
2023-05-20T11:06:48.507Z,17.73
2023-05-20T11:09:16.888Z,12.77
2023-05-20T11:11:44.302Z,14.48
2023-05-20T11:14:15.012Z,15.98
2023-05-20T11:16:43.048Z,13.88
2023-05-20T11:19:16.738Z,10.48
2023-05-20T11:21:46.202Z,14.00
2023-05-20T11:24:13.968Z,17.63
2023-05-20T11:26:42.730Z,14.02
2023-05-20T11:29:10.169Z,14.85
2023-05-20T11:31:39.402Z,13.52
2023-05-20T11:34:06.885Z,14.00
2023-05-20T11:36:34.301Z,14.43
2023-05-20T11:39:01.602Z,15.57
2023-05-20T11:41:29.565Z,12.65
2023-05-20T11:43:59.428Z,16.48
2023-05-20T11:46:28.191Z,13.70
2023-05-20T11:49:04.255Z,12.02
2023-05-20T11:51:31.624Z,14.05
2023-05-20T11:54:02.027Z,11.88
2023-05-20T11:56:31.700Z,17.30
2023-05-20T11:59:01.802Z,14.15
2023-05-20T12:01:34.871Z,12.05
2023-05-20T12:04:02.465Z,10.68
2023-05-20T12:06:31.124Z,12.73
2023-05-20T12:09:06.853Z,10.23
2023-05-20T12:11:36.156Z,13.48
2023-05-20T12:14:04.614Z,10.80
2023-05-20T12:16:33.726Z,11.75
2023-05-20T12:19:01.386Z,16.92
2023-05-20T12:21:29.934Z,13.27
2023-05-20T12:23:58.187Z,16.05
2023-05-20T12:26:27.947Z,14.93
2023-05-20T12:28:56.167Z,17.33
2023-05-20T12:31:24.592Z,15.23
2023-05-20T12:33:52.093Z,13.50
2023-05-20T12:36:19.894Z,12.77
2023-05-20T12:38:47.621Z,11.05
2023-05-20T12:41:14.935Z,13.05
2023-05-20T12:43:42.245Z,9.45
2023-05-20T12:46:09.776Z,13.77
2023-05-20T12:48:37.417Z,11.98
2023-05-20T12:51:05.014Z,12.15
2023-05-20T12:53:32.443Z,8.70
2023-05-20T12:55:59.901Z,9.65
2023-05-20T12:58:27.422Z,9.98
2023-05-20T13:00:54.793Z,10.50
2023-05-20T13:03:22.434Z,13.98
2023-05-20T13:05:49.757Z,10.88
2023-05-20T13:08:17.277Z,12.75
2023-05-20T13:10:44.566Z,12.88
2023-05-20T13:13:13.922Z,11.98
2023-05-20T13:15:41.587Z,9.50
2023-05-20T13:18:10.342Z,11.05
2023-05-20T13:20:37.936Z,12.50
2023-05-20T13:23:05.537Z,10.43
2023-05-20T13:25:32.789Z,12.63
2023-05-20T13:28:00.180Z,12.13
2023-05-20T13:30:28.664Z,13.15
2023-05-20T13:32:56.218Z,13.30
2023-05-20T13:35:23.617Z,12.77
2023-05-20T13:37:51.151Z,10.50
2023-05-20T13:40:18.446Z,17.05
2023-05-20T13:42:45.848Z,9.82
2023-05-20T13:45:13.197Z,9.57
2023-05-20T13:47:40.689Z,10.93
2023-05-20T13:50:08.988Z,10.95
2023-05-20T13:52:36.575Z,13.32
2023-05-20T13:55:04.092Z,11.45
2023-05-20T13:57:31.574Z,13.27
2023-05-20T13:59:58.933Z,8.60
2023-05-20T14:02:26.593Z,13.50
2023-05-20T14:04:53.987Z,11.75
2023-05-20T14:07:21.625Z,13.65
2023-05-20T14:09:48.910Z,12.20
2023-05-20T14:12:16.296Z,12.20
2023-05-20T14:14:43.712Z,12.00
2023-05-20T14:17:12.671Z,12.85
2023-05-20T14:19:40.124Z,13.73
2023-05-20T14:22:07.692Z,15.77
2023-05-20T14:24:34.814Z,12.45
2023-05-20T14:27:02.052Z,14.55
2023-05-20T14:29:29.211Z,16.50
2023-05-20T14:31:56.568Z,11.95
2023-05-20T14:34:23.769Z,13.30
2023-05-20T14:36:51.081Z,10.48
2023-05-20T14:39:18.310Z,12.35
2023-05-20T14:41:45.755Z,11.50
2023-05-20T14:44:12.981Z,12.48
2023-05-20T14:46:40.352Z,13.23
2023-05-20T14:49:07.627Z,10.30
2023-05-20T14:51:34.920Z,11.80
2023-05-20T14:54:02.020Z,12.75
2023-05-20T14:56:29.420Z,9.32
2023-05-20T14:58:56.642Z,12.45
2023-05-20T15:01:23.944Z,10.27
2023-05-20T15:03:51.102Z,10.95
2023-05-20T15:06:18.632Z,10.82
2023-05-20T15:08:46.281Z,14.50
2023-05-20T15:11:13.542Z,13.55
2023-05-20T15:13:40.844Z,10.15
2023-05-20T15:16:08.321Z,10.52
2023-05-20T15:18:35.725Z,15.05
2023-05-20T15:21:03.117Z,12.40
2023-05-20T15:23:30.469Z,8.35
2023-05-20T15:25:58.606Z,9.10
2023-05-20T15:28:25.945Z,10.68
2023-05-20T15:30:55.428Z,10.13
2023-05-20T15:33:23.247Z,12.38
2023-05-20T15:35:50.704Z,9.25
2023-05-20T15:38:17.911Z,13.70
2023-05-20T15:40:45.195Z,9.85
2023-05-20T15:43:12.967Z,10.68
2023-05-20T15:45:40.174Z,11.32
2023-05-20T15:48:08.319Z,16.23
2023-05-20T15:50:37.321Z,8.40
2023-05-20T15:53:07.589Z,11.55
2023-05-20T15:55:35.429Z,11.30
2023-05-20T15:58:03.448Z,10.70
2023-05-20T16:00:30.809Z,13.00
2023-05-20T16:02:58.255Z,8.65
2023-05-20T16:05:25.738Z,9.57
2023-05-20T16:07:53.493Z,8.57
2023-05-20T16:10:20.695Z,7.85
2023-05-20T16:12:48.069Z,9.80
2023-05-20T16:15:15.248Z,12.27
2023-05-20T16:17:42.581Z,9.90
2023-05-20T16:20:10.085Z,9.32
2023-05-20T16:22:37.308Z,12.10
2023-05-20T16:25:04.748Z,9.07
2023-05-20T16:27:32.676Z,10.57
2023-05-20T16:29:59.929Z,11.00
2023-05-20T16:32:27.926Z,11.10
2023-05-20T16:34:55.253Z,9.82
2023-05-20T16:37:22.528Z,10.85
2023-05-20T16:39:49.714Z,16.30
2023-05-20T16:42:17.085Z,12.05
2023-05-20T16:44:44.254Z,10.13
2023-05-20T16:47:11.579Z,12.98
2023-05-20T16:49:38.813Z,13.30
2023-05-20T16:52:06.763Z,14.75
2023-05-20T16:54:36.341Z,11.07
2023-05-20T16:57:04.574Z,11.70
2023-05-20T16:59:34.979Z,10.95
2023-05-20T17:02:02.314Z,8.57
2023-05-20T17:04:29.651Z,10.60
2023-05-20T17:06:56.859Z,10.05
2023-05-20T17:09:24.024Z,12.38
2023-05-20T17:11:53.235Z,11.57
2023-05-20T17:14:20.461Z,9.05
2023-05-20T17:16:47.762Z,11.27
2023-05-20T17:19:15.214Z,12.15
2023-05-20T17:21:44.187Z,12.75
2023-05-20T17:24:11.731Z,11.40
2023-05-20T17:26:39.033Z,13.10
2023-05-20T17:29:06.622Z,13.65
2023-05-20T17:31:33.970Z,13.82
2023-05-20T17:34:02.155Z,13.98
2023-05-20T17:36:29.436Z,12.55
2023-05-20T17:38:56.964Z,9.50
2023-05-20T17:41:24.258Z,10.55
2023-05-20T17:43:51.547Z,12.35
2023-05-20T17:46:18.869Z,10.23
2023-05-20T17:48:46.282Z,12.13
2023-05-20T17:51:13.604Z,10.02
2023-05-20T17:53:41.002Z,12.00
2023-05-20T17:56:08.332Z,12.55
2023-05-20T17:58:35.524Z,12.90
2023-05-20T18:01:02.740Z,12.65
2023-05-20T18:03:30.014Z,8.00
2023-05-20T18:05:57.376Z,10.13
2023-05-20T18:08:25.564Z,9.68
2023-05-20T18:10:53.144Z,15.75
2023-05-20T18:13:20.448Z,10.90
2023-05-20T18:15:48.358Z,12.43
2023-05-20T18:18:15.821Z,11.75
2023-05-20T18:20:43.178Z,9.70
2023-05-20T18:23:10.640Z,9.77
2023-05-20T18:25:38.951Z,9.80
2023-05-20T18:28:08.869Z,9.50
2023-05-20T18:30:36.796Z,9.60
2023-05-20T18:33:04.386Z,9.68
2023-05-20T18:35:31.635Z,12.45
2023-05-20T18:37:58.732Z,10.68
2023-05-20T18:40:26.740Z,8.25
2023-05-20T18:42:53.904Z,10.43
2023-05-20T18:45:21.940Z,11.65
2023-05-20T18:47:49.309Z,10.82
2023-05-20T18:50:16.794Z,9.25
2023-05-20T18:52:43.962Z,9.30
2023-05-20T18:55:11.486Z,11.52
2023-05-20T18:57:38.787Z,11.18
2023-05-20T19:00:10.746Z,11.60
2023-05-20T19:02:40.693Z,12.77
2023-05-20T19:05:09.904Z,11.38
2023-05-20T19:07:38.460Z,8.77
2023-05-20T19:10:06.420Z,9.80
2023-05-20T19:12:33.674Z,10.77
2023-05-20T19:15:01.663Z,13.23
2023-05-20T19:17:29.433Z,9.95
2023-05-20T19:19:56.640Z,13.48
2023-05-20T19:22:23.933Z,10.45
2023-05-20T19:24:51.206Z,9.68
2023-05-20T19:27:18.461Z,12.63
2023-05-20T19:29:45.594Z,11.57
2023-05-20T19:32:12.894Z,10.65
2023-05-20T19:34:40.901Z,9.80
2023-05-20T19:37:08.077Z,10.15
2023-05-20T19:39:35.566Z,13.80
2023-05-20T19:42:03.040Z,10.52
2023-05-20T19:44:30.370Z,10.13
2023-05-20T19:46:57.731Z,11.80
2023-05-20T19:49:24.869Z,13.00
2023-05-20T19:51:52.132Z,12.73
2023-05-20T19:54:19.355Z,14.13
2023-05-20T19:56:46.641Z,10.65
2023-05-20T19:59:13.800Z,9.32
2023-05-20T20:01:41.688Z,13.52
2023-05-20T20:04:08.903Z,11.20
2023-05-20T20:06:36.179Z,10.48
2023-05-20T20:09:04.938Z,9.85
2023-05-20T20:11:32.164Z,8.57
2023-05-20T20:13:59.387Z,11.57
2023-05-20T20:16:27.222Z,8.50
2023-05-20T20:18:54.852Z,10.98
2023-05-20T20:21:22.121Z,9.07
2023-05-20T20:23:49.291Z,12.10
2023-05-20T20:26:16.611Z,15.45
2023-05-20T20:28:43.737Z,8.57
2023-05-20T20:31:11.118Z,9.23
2023-05-20T20:33:38.253Z,8.73
2023-05-20T20:36:05.791Z,10.00
2023-05-20T20:38:33.117Z,11.35
2023-05-20T20:41:03.980Z,8.98
2023-05-20T20:43:31.316Z,9.63
2023-05-20T20:46:00.262Z,9.00
2023-05-20T20:48:27.663Z,8.20
2023-05-20T20:50:55.436Z,8.57
2023-05-20T20:53:22.869Z,7.95
2023-05-20T20:55:51.498Z,9.23
2023-05-20T20:58:19.075Z,10.38
2023-05-20T21:00:48.988Z,11.00
2023-05-20T21:03:16.502Z,11.27
2023-05-20T21:05:44.554Z,8.60
2023-05-20T21:08:13.465Z,7.03
2023-05-20T21:10:40.722Z,9.52
2023-05-20T21:13:08.112Z,7.88
2023-05-20T21:15:35.873Z,10.38
2023-05-20T21:18:03.618Z,10.75
2023-05-20T21:20:30.943Z,8.82
2023-05-20T21:22:58.282Z,15.18
2023-05-20T21:25:25.636Z,7.57
2023-05-20T21:27:52.823Z,10.38
2023-05-20T21:30:20.201Z,9.75
2023-05-20T21:32:47.544Z,7.97
2023-05-20T21:35:14.851Z,8.43
2023-05-20T21:37:42.142Z,9.13
2023-05-20T21:40:09.640Z,8.18
2023-05-20T21:42:36.933Z,10.35
2023-05-20T21:45:04.477Z,9.00
2023-05-20T21:47:31.728Z,9.73
2023-05-20T21:49:59.014Z,10.32
2023-05-20T21:52:26.312Z,9.95
2023-05-20T21:54:53.506Z,11.30
2023-05-20T21:57:20.900Z,11.48
2023-05-20T21:59:49.042Z,10.85
2023-05-20T22:02:17.612Z,9.60
2023-05-20T22:04:44.769Z,12.80
2023-05-20T22:07:12.166Z,11.63
2023-05-20T22:09:39.760Z,11.65
2023-05-20T22:12:07.874Z,11.43
2023-05-20T22:14:35.168Z,9.93
2023-05-20T22:17:03.244Z,10.23
2023-05-20T22:19:30.601Z,9.75
2023-05-20T22:21:58.131Z,8.95
2023-05-20T22:24:25.221Z,9.18
2023-05-20T22:26:52.495Z,10.57
2023-05-20T22:29:19.682Z,10.43
2023-05-20T22:31:46.951Z,9.90
2023-05-20T22:34:14.117Z,10.02
2023-05-20T22:36:41.858Z,11.15
2023-05-20T22:39:08.984Z,11.82
2023-05-20T22:41:36.171Z,11.23
2023-05-20T22:44:03.657Z,8.80
2023-05-20T22:46:31.003Z,10.20
2023-05-20T22:49:01.765Z,8.73
2023-05-20T22:51:29.043Z,9.80
2023-05-20T22:53:56.709Z,10.25
2023-05-20T22:56:25.803Z,11.00
2023-05-20T22:58:53.085Z,13.38
2023-05-20T23:01:21.601Z,12.88
2023-05-20T23:03:48.816Z,9.43
2023-05-20T23:06:16.684Z,8.73
2023-05-20T23:08:44.655Z,8.18
2023-05-20T23:11:12.005Z,8.75
2023-05-20T23:13:39.215Z,9.73
2023-05-20T23:16:07.660Z,7.88
2023-05-20T23:18:34.847Z,11.13
2023-05-20T23:21:02.565Z,8.45
2023-05-20T23:23:31.574Z,8.90
2023-05-20T23:25:59.867Z,8.43
2023-05-20T23:28:27.531Z,9.50
2023-05-20T23:30:54.935Z,6.90
2023-05-20T23:33:25.413Z,8.40
2023-05-20T23:35:53.323Z,8.77
2023-05-20T23:38:20.545Z,9.35
2023-05-20T23:40:48.816Z,7.85
2023-05-20T23:43:16.270Z,8.63
2023-05-20T23:45:43.502Z,8.75
2023-05-20T23:48:13.211Z,9.20
2023-05-20T23:50:40.887Z,8.00
2023-05-20T23:53:08.129Z,9.45
2023-05-20T23:55:35.593Z,8.43
2023-05-20T23:58:03.204Z,10.50
